РПИ Новосибирск

Общая информация

Новосибирский район полетной информации (РПИ) является структурным подразделением дивизиона VATRUS международной сети VATSIM.

Новосибирский РПИ осуществляет свою деятельность в воздушном пространстве над территориями 6 субъектов Российской Федерации, общая площадь территории которых составляет около 1 млн кв. км. Зона ответственности Новосибирского РПИ простирается над Республикой Алтай, Алтайским краем, Новосибирской, Кемеровской, Омской и Томской областями.

Воздушное пространство зоны ответственности Новосибирского РПИ граничит с районами организации воздушного движения Монголии, Республики Казахстан и Китайской Народной Республики. Авиационные магистрали, проходящие через зону ответственности Новосибирского РПИ, связывают Западную Европу с Юго-Восточной Азией, Северную Америку с Южно-Азиатским регионом.

Общая протяженность воздушных трасс составляет более 40 тысяч километров, в том числе более 130 международных участков с десятью воздушными коридорами на границе сопредельных государств (Казахстан, Китай, Монголия).

В состав Новосибирского РПИ входят аэродромы таких городов, как Барнаул, Горно-Алтайск, Кемерово, Новокузнецк, Новосибирск, Омск, Стрежевой, Томск.

Коды ВОРЛ (район применения ICAO EUR-G)

Новосибирск (Толмачёво) 5201-5230, 5270-5275

Новосибирск (Ельцовка) 5316-5317

Кемерово 5301-5305

Новокузнецк (Спиченково) 5306-5311

Томск (Богашево) 5254-5257, 5312-5315, 5462-5467

Барнаул (Михайловка) 5250-5253, 5260-5264

Горно-Алтайск 5265-5267

Омск (Центральный) 5440-5461

Стрежевой 5276-5277

РЕЗЕРВ РЦ ЕС ОрВД 5231-5247

Средства связи ОВД

UNNT_CTR - Новосибирск-Контроль - 127.000

Публичные ресурсы РПИ Новосибирск

ВКонтакте - http://vk.com/unnt_fir

Discord - https://discord.gg/ZSNduMxhuM

Контакты администрации РПИ Новосибирск

Fir-unnt@yandex.ru

****************************************************************************************************************

General information

The Novosibirsk Flight Information Region carries out activities in the air district on a territory of 6 subjects in the Russian Federation with a total area of 1 million square kilometers. The area of responsibility of the Novosibirsk FIR extends over the Republic of Altai, the Altai Territory, the Novosibirsk, Kemerovo, Omsk and Tomsk regions.

Air region shares borders with Mongolia, Kazakhstan and China. Airways passing through of the Novosibirsk FIR connect West Europe with South-East Asia and North America with South-Asian regions. The total length of airways is 40 thousand kilometres, including 130 in international area with 10 air corridors, crossing the borders of Kazakhstan, China, Mongolia.

There are aerodromes in Barnaul, Altai, Kemerovo, Novokuznetsk, Novosibirsk, Omsk, Strezhevoj, Tomsk.

Squawk (ICAO EUR-G):

Novosibirsk 5201-5257, 5270-5277, 5301-5317

Omsk 5440-5467

Barnaul 5260-5269

Frequency:

UNNT_CTR - Novosibirsk-Control - 127.000

Our resources:

VK - http://vk.com/unnt_fir

Discord - https://discord.gg/ZSNduMxhuM

Contact us via mail: Fir-unnt@yandex.ru

Лого Новосибирск
Руководитель РПИ

Mikhail Gogolev

Инструкторы РПИ
Aleksey Nevzorov (Instructor)
Artem Smychkov (Instructor)
Mikhail Gogolev (Instructor)
Mikhail Pompushko * (Senior Student)
Sergey Korolev (Instructor)
Tigran Areian * (Controller)
Входит в состав
ЗЦ Новосибирск

Диспетчеры РПИ

Диспетчер Рейтинг Допуски *
Aleksey Nevzorov Instructor UNNT_CTR
Artem Smychkov Instructor UNNT_CTR
Karim Garifullin Instructor UNNT_CTR
Kirill Shabunin Senior Controller UNNT_CTR
Mikhail Gogolev Instructor UNNT_CTR
Tigran Areian Controller UNNT_CTR
Alexander Shchelganov Senior Student UNNT_APP
Alexey Ginko Student UNNT_GND
Andrey Myagkih Student UNNT_GND
Andrey Zonov Student 2 UNNT_TWR
Anton Gluchenkov Student 2 UNNT_TWR
Arseniy Kucheev Student 2 UNEE_TWR, UNNT_TWR, UNNT_R_APP*, UNOO_GND
Artem Glinchikov Student UNNT_GND
Artem Tsendrovsky Senior Student UNNT_APP, UNOO_APP
Artem Yusko Student UNNT_GND
Boris Yakunin Student UNNT_GND, UNNT_TWR*
Daniil Shirshikov Student UNNT_GND
Darya Krauz Student UNNT_GND
Igor Murashkin Student UNNT_GND
Kirill Ivanov Senior Student UNBG_TWR, UNEE_APP, UNNT_APP, UNOO_APP, UNTT_TWR, UNWW_APP
Kirill Valigun Student 2 UNNT_R_APP*
Konstantin Bednov Student 2 UNNT_R_APP*, UNNT_TWR, UNOO_TWR
Maxim Konovalov Student UNNT_GND
Mikhail Pompushko Senior Student UNBG_TWR, UNNT_APP, UNSS_R_APP, UNWW_APP
Semen Vaysman Student UNNT_GND
Sergey Arkasov Student 2 UNBB_TWR, UNNT_GND, UNNT_TWR*
Stas Butrim Student UNNT_GND
Stepan Seleznev Student 2 UNNT_GND
Timofei Degtyar Student 2 UNNT_TWR, UNNT_R_APP*, UNOO_TWR
Vadim Kuzmin Student UNNT_GND, UNNT_TWR*
vlad vartanov Student UNNT_GND
Yulia Khudic Student UNNT_GND

Аэропорты РПИ

ICAO Город Название Погода
UNBB Барнаул Барнаул UNBB 020100Z 27007MPS 9999 SCT027 15/09 Q1006 R24/CLRD66 NOSIG RMK QFE732
UNBG Горно-Алтайск Горно-Алтайск
UNEE Кемерово Кемерово UNEE 020100Z 23004MPS 9999 SCT036CB 13/11 Q1003 R23/CLRD60 NOSIG RMK QFE729
UNWW Новокузнецк Новокузнецк UNWW 020100Z 19003MPS 9999 BKN040CB 14/08 Q1005 R01/09//60 NOSIG RMK QFE727
UNNT Новосибирск Новосибирск UNNT 020100Z 24006MPS 9999 SCT010 OVC020 15/12 Q1003 R25/090070 R34/////// NOSIG RMK QFE742/0990
UNOO Омск Омск UNOO 020100Z 29003MPS CAVOK 14/11 Q1008 R25/CLRD60 NOSIG RMK QFE747
UNSS Стрежевой Стрежевой
UNTT Томск Томск UNTT 020100Z 21005MPS 2000 R21/2000D -SHRA BR BKN005CB 12/12 Q1000 R21/290150 NOSIG RMK QFE735